sensor_id;sensor_type;location;lat;lon;timestamp;pressure;altitude;pressure_sealevel;temperature;humidity
23321;BME280;33376;51.306;4.752;2022-10-18T00:02:02;96133.38;;;15.14;nan
23321;BME280;33376;51.306;4.752;2022-10-18T00:04:27;96126.91;;;15.03;nan
23321;BME280;33376;51.306;4.752;2022-10-18T00:06:53;96123.94;;;15.04;nan
23321;BME280;33376;51.306;4.752;2022-10-18T00:09:18;96128.16;;;14.97;nan
23321;BME280;33376;51.306;4.752;2022-10-18T00:11:43;96129.75;;;14.98;nan
23321;BME280;33376;51.306;4.752;2022-10-18T00:14:08;96122.03;;;15.05;nan
23321;BME280;33376;51.306;4.752;2022-10-18T00:16:34;96124.38;;;15.06;nan
23321;BME280;33376;51.306;4.752;2022-10-18T00:18:59;96127.34;;;15.05;nan
23321;BME280;33376;51.306;4.752;2022-10-18T00:21:25;96125.16;;;15.07;nan
23321;BME280;33376;51.306;4.752;2022-10-18T00:23:51;96128.13;;;15.05;nan
23321;BME280;33376;51.306;4.752;2022-10-18T00:26:18;96120.88;;;15.14;nan
23321;BME280;33376;51.306;4.752;2022-10-18T00:28:43;96129.81;;;15.10;nan
23321;BME280;33376;51.306;4.752;2022-10-18T00:33:37;96132.91;;;15.12;nan
23321;BME280;33376;51.306;4.752;2022-10-18T00:36:03;96126.78;;;15.20;nan
23321;BME280;33376;51.306;4.752;2022-10-18T00:38:28;96124.44;;;15.18;nan
23321;BME280;33376;51.306;4.752;2022-10-18T00:40:53;96130.13;;;15.29;nan
23321;BME280;33376;51.306;4.752;2022-10-18T00:43:18;96125.47;;;15.26;nan
23321;BME280;33376;51.306;4.752;2022-10-18T00:45:44;96125.94;;;15.28;nan
23321;BME280;33376;51.306;4.752;2022-10-18T00:48:09;96130.59;;;15.31;nan
23321;BME280;33376;51.306;4.752;2022-10-18T00:50:35;96125.59;;;15.29;nan
23321;BME280;33376;51.306;4.752;2022-10-18T00:53:01;96132.34;;;15.27;nan
23321;BME280;33376;51.306;4.752;2022-10-18T00:55:27;96130.44;;;15.27;nan
23321;BME280;33376;51.306;4.752;2022-10-18T00:57:54;96137.34;;;15.28;nan
23321;BME280;33376;51.306;4.752;2022-10-18T01:00:20;96132.22;;;15.23;nan
23321;BME280;33376;51.306;4.752;2022-10-18T01:02:45;96131.63;;;15.18;nan
23321;BME280;33376;51.306;4.752;2022-10-18T01:05:12;96128.06;;;15.14;nan
23321;BME280;33376;51.306;4.752;2022-10-18T01:10:32;96122.06;;;15.25;nan
23321;BME280;33376;51.306;4.752;2022-10-18T01:23:22;96136.16;;;15.17;nan
23321;BME280;33376;51.306;4.752;2022-10-18T01:31:10;96153.44;;;15.23;nan
23321;BME280;33376;51.306;4.752;2022-10-18T01:36:14;96165.41;;;15.29;nan
23321;BME280;33376;51.306;4.752;2022-10-18T01:38:41;96166.72;;;15.23;nan
23321;BME280;33376;51.306;4.752;2022-10-18T01:41:08;96170.59;;;15.26;nan
23321;BME280;33376;51.306;4.752;2022-10-18T01:43:35;96172.81;;;15.24;nan
23321;BME280;33376;51.306;4.752;2022-10-18T01:46:01;96168.06;;;15.29;nan
23321;BME280;33376;51.306;4.752;2022-10-18T01:48:28;96166.53;;;15.28;nan
23321;BME280;33376;51.306;4.752;2022-10-18T01:50:53;96160.38;;;15.36;nan
23321;BME280;33376;51.306;4.752;2022-10-18T01:53:22;96161.47;;;15.35;nan
23321;BME280;33376;51.306;4.752;2022-10-18T01:55:51;96172.03;;;15.23;nan
23321;BME280;33376;51.306;4.752;2022-10-18T01:58:30;96166.25;;;15.21;nan
23321;BME280;33376;51.306;4.752;2022-10-18T02:01:08;96166.59;;;15.20;nan
23321;BME280;33376;51.306;4.752;2022-10-18T02:03:36;96163.78;;;15.16;nan
23321;BME280;33376;51.306;4.752;2022-10-18T02:06:08;96169.41;;;15.15;nan
23321;BME280;33376;51.306;4.752;2022-10-18T02:08:38;96177.06;;;15.16;nan
23321;BME280;33376;51.306;4.752;2022-10-18T02:11:16;96174.53;;;15.20;nan
23321;BME280;33376;51.306;4.752;2022-10-18T02:14:15;96176.09;;;15.21;nan
23321;BME280;33376;51.306;4.752;2022-10-18T02:16:38;96171.56;;;15.21;nan
23321;BME280;33376;51.306;4.752;2022-10-18T02:19:09;96172.81;;;15.24;nan
23321;BME280;33376;51.306;4.752;2022-10-18T02:21:36;96170.78;;;15.21;nan
23321;BME280;33376;51.306;4.752;2022-10-18T02:24:02;96178.94;;;15.16;nan
23321;BME280;33376;51.306;4.752;2022-10-18T02:26:29;96176.72;;;15.18;nan
23321;BME280;33376;51.306;4.752;2022-10-18T02:28:54;96179.72;;;15.16;nan
23321;BME280;33376;51.306;4.752;2022-10-18T02:31:35;96182.38;;;15.16;nan
23321;BME280;33376;51.306;4.752;2022-10-18T02:34:17;96178.16;;;15.15;nan
23321;BME280;33376;51.306;4.752;2022-10-18T02:36:45;96190.19;;;15.13;nan
23321;BME280;33376;51.306;4.752;2022-10-18T02:39:12;96192.72;;;15.09;nan
23321;BME280;33376;51.306;4.752;2022-10-18T02:41:38;96189.75;;;15.11;nan
23321;BME280;33376;51.306;4.752;2022-10-18T02:44:04;96185.53;;;15.10;nan
23321;BME280;33376;51.306;4.752;2022-10-18T02:46:29;96199.13;;;15.08;nan
23321;BME280;33376;51.306;4.752;2022-10-18T02:48:54;96190.91;;;15.01;nan
23321;BME280;33376;51.306;4.752;2022-10-18T02:51:20;96181.19;;;15.05;nan
23321;BME280;33376;51.306;4.752;2022-10-18T02:53:45;96185.72;;;15.05;nan
23321;BME280;33376;51.306;4.752;2022-10-18T02:56:10;96178.72;;;15.00;nan
23321;BME280;33376;51.306;4.752;2022-10-18T02:58:35;96188.50;;;15.08;nan
23321;BME280;33376;51.306;4.752;2022-10-18T03:01:00;96184.16;;;15.04;nan
23321;BME280;33376;51.306;4.752;2022-10-18T03:03:26;96178.22;;;15.07;nan
23321;BME280;33376;51.306;4.752;2022-10-18T03:05:51;96183.50;;;15.07;nan
23321;BME280;33376;51.306;4.752;2022-10-18T03:08:16;96187.28;;;15.06;nan
23321;BME280;33376;51.306;4.752;2022-10-18T03:10:43;96184.47;;;15.02;nan
23321;BME280;33376;51.306;4.752;2022-10-18T03:13:08;96188.25;;;15.01;nan
23321;BME280;33376;51.306;4.752;2022-10-18T03:15:33;96185.91;;;15.00;nan
23321;BME280;33376;51.306;4.752;2022-10-18T03:17:59;96190.25;;;15.04;nan
23321;BME280;33376;51.306;4.752;2022-10-18T03:20:24;96181.66;;;15.07;nan
23321;BME280;33376;51.306;4.752;2022-10-18T03:22:49;96174.16;;;15.09;nan
23321;BME280;33376;51.306;4.752;2022-10-18T03:25:14;96161.31;;;15.11;nan
23321;BME280;33376;51.306;4.752;2022-10-18T03:27:39;96164.47;;;15.05;nan
23321;BME280;33376;51.306;4.752;2022-10-18T03:30:05;96162.78;;;15.00;nan
23321;BME280;33376;51.306;4.752;2022-10-18T03:32:30;96154.84;;;15.00;nan
23321;BME280;33376;51.306;4.752;2022-10-18T03:34:55;96165.38;;;14.88;nan
23321;BME280;33376;51.306;4.752;2022-10-18T03:37:21;96161.34;;;14.82;nan
23321;BME280;33376;51.306;4.752;2022-10-18T03:39:46;96162.06;;;14.91;nan
23321;BME280;33376;51.306;4.752;2022-10-18T03:42:11;96159.09;;;14.93;nan
23321;BME280;33376;51.306;4.752;2022-10-18T03:44:37;96166.44;;;14.87;nan
23321;BME280;33376;51.306;4.752;2022-10-18T03:47:02;96159.28;;;14.88;nan
23321;BME280;33376;51.306;4.752;2022-10-18T03:49:27;96166.59;;;14.91;nan
23321;BME280;33376;51.306;4.752;2022-10-18T03:51:52;96171.97;;;14.82;nan
23321;BME280;33376;51.306;4.752;2022-10-18T03:54:17;96166.78;;;14.86;nan
23321;BME280;33376;51.306;4.752;2022-10-18T03:56:43;96165.53;;;14.92;nan
23321;BME280;33376;51.306;4.752;2022-10-18T03:59:08;96175.88;;;14.76;nan
23321;BME280;33376;51.306;4.752;2022-10-18T04:01:33;96179.16;;;14.73;nan
23321;BME280;33376;51.306;4.752;2022-10-18T04:03:58;96175.75;;;14.73;nan
23321;BME280;33376;51.306;4.752;2022-10-18T04:06:24;96167.00;;;14.72;nan
23321;BME280;33376;51.306;4.752;2022-10-18T04:08:49;96173.53;;;14.75;nan
23321;BME280;33376;51.306;4.752;2022-10-18T04:11:14;96173.88;;;14.73;nan
23321;BME280;33376;51.306;4.752;2022-10-18T04:13:39;96179.66;;;14.66;nan
23321;BME280;33376;51.306;4.752;2022-10-18T04:16:04;96188.41;;;14.67;nan
23321;BME280;33376;51.306;4.752;2022-10-18T04:18:30;96190.25;;;14.75;nan
23321;BME280;33376;51.306;4.752;2022-10-18T04:20:55;96185.44;;;14.68;nan
23321;BME280;33376;51.306;4.752;2022-10-18T04:23:20;96178.22;;;14.78;nan
23321;BME280;33376;51.306;4.752;2022-10-18T04:25:45;96186.16;;;14.78;nan
23321;BME280;33376;51.306;4.752;2022-10-18T04:28:11;96191.34;;;14.74;nan
23321;BME280;33376;51.306;4.752;2022-10-18T04:30:36;96192.44;;;14.73;nan
23321;BME280;33376;51.306;4.752;2022-10-18T04:33:01;96191.47;;;14.78;nan
23321;BME280;33376;51.306;4.752;2022-10-18T04:35:27;96190.84;;;14.81;nan
23321;BME280;33376;51.306;4.752;2022-10-18T04:37:52;96179.47;;;14.80;nan
23321;BME280;33376;51.306;4.752;2022-10-18T04:40:18;96179.34;;;14.68;nan
23321;BME280;33376;51.306;4.752;2022-10-18T04:42:44;96182.56;;;14.82;nan
23321;BME280;33376;51.306;4.752;2022-10-18T04:45:09;96177.44;;;14.77;nan
23321;BME280;33376;51.306;4.752;2022-10-18T04:47:35;96180.84;;;14.78;nan
23321;BME280;33376;51.306;4.752;2022-10-18T04:50:00;96184.53;;;14.64;nan
23321;BME280;33376;51.306;4.752;2022-10-18T04:52:25;96195.75;;;14.61;nan
23321;BME280;33376;51.306;4.752;2022-10-18T04:54:50;96191.53;;;14.60;nan
23321;BME280;33376;51.306;4.752;2022-10-18T04:57:15;96196.84;;;14.60;nan
23321;BME280;33376;51.306;4.752;2022-10-18T04:59:41;96195.00;;;14.52;nan
23321;BME280;33376;51.306;4.752;2022-10-18T05:02:06;96198.47;;;14.44;nan
23321;BME280;33376;51.306;4.752;2022-10-18T05:04:31;96194.22;;;14.52;nan
23321;BME280;33376;51.306;4.752;2022-10-18T05:06:56;96207.38;;;14.40;nan
23321;BME280;33376;51.306;4.752;2022-10-18T05:09:22;96207.84;;;14.42;nan
23321;BME280;33376;51.306;4.752;2022-10-18T05:11:48;96198.94;;;14.46;nan
23321;BME280;33376;51.306;4.752;2022-10-18T05:14:14;96196.28;;;14.46;nan
23321;BME280;33376;51.306;4.752;2022-10-18T05:16:39;96206.47;;;14.27;nan
23321;BME280;33376;51.306;4.752;2022-10-18T05:19:04;96200.50;;;14.22;nan
23321;BME280;33376;51.306;4.752;2022-10-18T05:21:30;96202.69;;;14.37;nan
23321;BME280;33376;51.306;4.752;2022-10-18T05:23:55;96202.09;;;14.23;nan
23321;BME280;33376;51.306;4.752;2022-10-18T05:26:20;96205.97;;;14.17;nan
23321;BME280;33376;51.306;4.752;2022-10-18T05:28:45;96208.50;;;14.13;nan
23321;BME280;33376;51.306;4.752;2022-10-18T05:31:11;96210.03;;;14.14;nan
23321;BME280;33376;51.306;4.752;2022-10-18T05:33:36;96217.53;;;14.12;nan
23321;BME280;33376;51.306;4.752;2022-10-18T05:36:02;96213.94;;;14.17;nan
23321;BME280;33376;51.306;4.752;2022-10-18T05:38:27;96216.75;;;14.12;nan
23321;BME280;33376;51.306;4.752;2022-10-18T05:40:55;96214.28;;;13.90;nan
23321;BME280;33376;51.306;4.752;2022-10-18T05:43:20;96222.25;;;13.81;nan
23321;BME280;33376;51.306;4.752;2022-10-18T05:45:49;96221.91;;;13.74;nan
23321;BME280;33376;51.306;4.752;2022-10-18T05:48:14;96223.47;;;13.58;nan
23321;BME280;33376;51.306;4.752;2022-10-18T05:50:40;96217.25;;;13.54;nan
23321;BME280;33376;51.306;4.752;2022-10-18T05:53:05;96212.13;;;13.58;nan
23321;BME280;33376;51.306;4.752;2022-10-18T05:55:30;96211.16;;;13.45;nan
23321;BME280;33376;51.306;4.752;2022-10-18T05:57:55;96206.03;;;13.40;nan
23321;BME280;33376;51.306;4.752;2022-10-18T06:00:21;96209.75;;;13.48;nan
23321;BME280;33376;51.306;4.752;2022-10-18T06:02:46;96214.41;;;13.42;nan
23321;BME280;33376;51.306;4.752;2022-10-18T06:05:11;96201.66;;;13.44;nan
23321;BME280;33376;51.306;4.752;2022-10-18T06:07:36;96206.94;;;13.36;nan
23321;BME280;33376;51.306;4.752;2022-10-18T06:10:01;96201.31;;;13.37;nan
23321;BME280;33376;51.306;4.752;2022-10-18T06:12:27;96204.28;;;13.36;nan
23321;BME280;33376;51.306;4.752;2022-10-18T06:14:52;96194.63;;;13.31;nan
23321;BME280;33376;51.306;4.752;2022-10-18T06:17:17;96199.47;;;13.29;nan
23321;BME280;33376;51.306;4.752;2022-10-18T06:19:42;96200.09;;;13.35;nan
23321;BME280;33376;51.306;4.752;2022-10-18T06:22:08;96191.38;;;13.26;nan
23321;BME280;33376;51.306;4.752;2022-10-18T06:24:34;96186.09;;;13.26;nan
23321;BME280;33376;51.306;4.752;2022-10-18T06:26:59;96191.06;;;13.27;nan
23321;BME280;33376;51.306;4.752;2022-10-18T06:29:24;96191.06;;;13.27;nan
23321;BME280;33376;51.306;4.752;2022-10-18T06:31:49;96190.09;;;13.23;nan
23321;BME280;33376;51.306;4.752;2022-10-18T06:34:14;96192.13;;;13.17;nan
23321;BME280;33376;51.306;4.752;2022-10-18T06:36:40;96194.78;;;13.17;nan
23321;BME280;33376;51.306;4.752;2022-10-18T06:39:05;96198.97;;;13.18;nan
23321;BME280;33376;51.306;4.752;2022-10-18T06:41:31;96198.50;;;13.16;nan
23321;BME280;33376;51.306;4.752;2022-10-18T06:43:56;96198.50;;;13.16;nan
23321;BME280;33376;51.306;4.752;2022-10-18T06:46:22;96198.81;;;13.15;nan
23321;BME280;33376;51.306;4.752;2022-10-18T06:48:48;96191.03;;;13.18;nan
23321;BME280;33376;51.306;4.752;2022-10-18T06:51:13;96200.22;;;13.12;nan
23321;BME280;33376;51.306;4.752;2022-10-18T06:53:39;96211.09;;;13.11;nan
23321;BME280;33376;51.306;4.752;2022-10-18T06:56:05;96215.78;;;13.14;nan
23321;BME280;33376;51.306;4.752;2022-10-18T06:58:31;96210.97;;;13.16;nan
23321;BME280;33376;51.306;4.752;2022-10-18T07:00:57;96212.19;;;13.18;nan
23321;BME280;33376;51.306;4.752;2022-10-18T07:03:23;96215.00;;;13.22;nan
23321;BME280;33376;51.306;4.752;2022-10-18T07:05:49;96218.00;;;13.29;nan
23321;BME280;33376;51.306;4.752;2022-10-18T07:08:14;96225.31;;;13.32;nan
23321;BME280;33376;51.306;4.752;2022-10-18T07:10:40;96226.56;;;13.35;nan
23321;BME280;33376;51.306;4.752;2022-10-18T07:13:05;96225.47;;;13.44;nan
23321;BME280;33376;51.306;4.752;2022-10-18T07:15:30;96224.09;;;13.47;nan
23321;BME280;33376;51.306;4.752;2022-10-18T07:17:55;96218.63;;;13.52;nan
23321;BME280;33376;51.306;4.752;2022-10-18T07:20:21;96226.59;;;13.77;nan
23321;BME280;33376;51.306;4.752;2022-10-18T07:22:46;96236.72;;;13.92;nan
23321;BME280;33376;51.306;4.752;2022-10-18T07:25:11;96236.53;;;14.06;nan
23321;BME280;33376;51.306;4.752;2022-10-18T07:27:37;96230.47;;;14.05;nan
23321;BME280;33376;51.306;4.752;2022-10-18T07:30:05;96235.13;;;14.17;nan
23321;BME280;33376;51.306;4.752;2022-10-18T07:32:31;96236.06;;;14.21;nan
23321;BME280;33376;51.306;4.752;2022-10-18T07:34:57;96239.19;;;14.23;nan
23321;BME280;33376;51.306;4.752;2022-10-18T07:37:22;96245.56;;;14.22;nan
23321;BME280;33376;51.306;4.752;2022-10-18T07:39:47;96238.91;;;14.24;nan
23321;BME280;33376;51.306;4.752;2022-10-18T07:42:12;96243.84;;;14.34;nan
23321;BME280;33376;51.306;4.752;2022-10-18T07:44:38;96244.16;;;14.41;nan
23321;BME280;33376;51.306;4.752;2022-10-18T07:47:03;96246.66;;;14.38;nan
23321;BME280;33376;51.306;4.752;2022-10-18T07:49:28;96253.66;;;14.42;nan
23321;BME280;33376;51.306;4.752;2022-10-18T07:51:53;96260.50;;;14.52;nan
23321;BME280;33376;51.306;4.752;2022-10-18T07:54:19;96263.44;;;14.59;nan
23321;BME280;33376;51.306;4.752;2022-10-18T07:56:44;96264.84;;;14.65;nan
23321;BME280;33376;51.306;4.752;2022-10-18T07:59:09;96258.41;;;14.75;nan
23321;BME280;33376;51.306;4.752;2022-10-18T08:01:35;96259.19;;;14.75;nan
23321;BME280;33376;51.306;4.752;2022-10-18T08:04:00;96255.25;;;14.81;nan
23321;BME280;33376;51.306;4.752;2022-10-18T08:06:25;96259.81;;;14.81;nan
23321;BME280;33376;51.306;4.752;2022-10-18T08:08:51;96261.03;;;14.83;nan
23321;BME280;33376;51.306;4.752;2022-10-18T08:11:20;96254.31;;;14.86;nan
23321;BME280;33376;51.306;4.752;2022-10-18T08:13:46;96258.22;;;14.88;nan
23321;BME280;33376;51.306;4.752;2022-10-18T08:16:13;96260.22;;;14.91;nan
23321;BME280;33376;51.306;4.752;2022-10-18T08:18:38;96270.97;;;14.95;nan
23321;BME280;33376;51.306;4.752;2022-10-18T08:21:04;96273.91;;;15.02;nan
23321;BME280;33376;51.306;4.752;2022-10-18T08:23:29;96266.59;;;14.99;nan
23321;BME280;33376;51.306;4.752;2022-10-18T08:25:55;96277.03;;;15.04;nan
23321;BME280;33376;51.306;4.752;2022-10-18T08:28:20;96277.97;;;15.08;nan
23321;BME280;33376;51.306;4.752;2022-10-18T08:30:45;96289.31;;;15.17;nan
23321;BME280;33376;51.306;4.752;2022-10-18T08:33:11;96286.47;;;15.22;nan
23321;BME280;33376;51.306;4.752;2022-10-18T08:35:36;96279.91;;;15.19;nan
23321;BME280;33376;51.306;4.752;2022-10-18T08:38:01;96288.47;;;15.25;nan
23321;BME280;33376;51.306;4.752;2022-10-18T08:40:27;96305.31;;;15.29;nan
23321;BME280;33376;51.306;4.752;2022-10-18T08:43:06;96290.78;;;15.35;nan
23321;BME280;33376;51.306;4.752;2022-10-18T08:45:35;96267.16;;;15.42;nan
23321;BME280;33376;51.306;4.752;2022-10-18T08:48:01;96275.19;;;15.33;nan
23321;BME280;33376;51.306;4.752;2022-10-18T08:50:32;96324.19;;;15.36;nan
23321;BME280;33376;51.306;4.752;2022-10-18T08:53:03;96325.72;;;15.37;nan
23321;BME280;33376;51.306;4.752;2022-10-18T08:55:41;96325.72;;;15.45;nan
23321;BME280;33376;51.306;4.752;2022-10-18T09:00:44;54110.22;;;-141.08;0.00
23321;BME280;33376;51.306;4.752;2022-10-18T09:03:20;54110.22;;;-141.08;0.00
23321;BME280;33376;51.306;4.752;2022-10-18T09:05:51;54110.22;;;-141.08;0.00
23321;BME280;33376;51.306;4.752;2022-10-18T09:11:06;54110.22;;;-141.08;0.00
23321;BME280;33376;51.306;4.752;2022-10-18T09:16:19;54110.22;;;-141.08;0.00
23321;BME280;33376;51.306;4.752;2022-10-18T09:18:49;54110.22;;;-141.08;0.00
23321;BME280;33376;51.306;4.752;2022-10-18T09:21:19;54110.22;;;-141.08;0.00
23321;BME280;33376;51.306;4.752;2022-10-18T09:23:55;54110.22;;;-141.08;0.00
23321;BME280;33376;51.306;4.752;2022-10-18T09:26:30;54110.22;;;-141.08;0.00
23321;BME280;33376;51.306;4.752;2022-10-18T09:31:27;54110.22;;;-141.08;0.00
23321;BME280;33376;51.306;4.752;2022-10-18T09:36:40;54110.22;;;-141.08;0.00
23321;BME280;33376;51.306;4.752;2022-10-18T09:41:37;54110.22;;;-141.08;0.00
23321;BME280;33376;51.306;4.752;2022-10-18T09:44:20;54110.22;;;-141.08;0.00
23321;BME280;33376;51.306;4.752;2022-10-18T09:46:52;54110.22;;;-141.08;0.00
23321;BME280;33376;51.306;4.752;2022-10-18T09:49:23;54110.22;;;-141.08;0.00
23321;BME280;33376;51.306;4.752;2022-10-18T09:51:50;54110.22;;;-141.08;0.00
23321;BME280;33376;51.306;4.752;2022-10-18T09:54:19;54110.22;;;-141.08;0.00
23321;BME280;33376;51.306;4.752;2022-10-18T09:56:51;54110.22;;;-141.08;0.00
23321;BME280;33376;51.306;4.752;2022-10-18T10:02:02;54110.22;;;-141.08;0.00
23321;BME280;33376;51.306;4.752;2022-10-18T10:04:28;54110.22;;;-141.08;0.00
23321;BME280;33376;51.306;4.752;2022-10-18T10:06:54;54110.22;;;-141.08;0.00
23321;BME280;33376;51.306;4.752;2022-10-18T10:09:30;54110.22;;;-141.08;0.00
23321;BME280;33376;51.306;4.752;2022-10-18T10:11:55;54110.22;;;-141.08;0.00
23321;BME280;33376;51.306;4.752;2022-10-18T10:14:22;54110.22;;;-141.08;0.00
23321;BME280;33376;51.306;4.752;2022-10-18T10:17:02;54110.22;;;-141.08;0.00
23321;BME280;33376;51.306;4.752;2022-10-18T10:19:36;54110.22;;;-141.08;0.00
23321;BME280;33376;51.306;4.752;2022-10-18T10:22:09;54110.22;;;-141.08;0.00
23321;BME280;33376;51.306;4.752;2022-10-18T10:24:46;54110.22;;;-141.08;0.00
23321;BME280;33376;51.306;4.752;2022-10-18T10:27:17;54110.22;;;-141.08;0.00
23321;BME280;33376;51.306;4.752;2022-10-18T10:32:12;54110.22;;;-141.08;0.00
23321;BME280;33376;51.306;4.752;2022-10-18T10:34:37;54110.22;;;-141.08;0.00
23321;BME280;33376;51.306;4.752;2022-10-18T10:37:08;54110.22;;;-141.08;0.00
23321;BME280;33376;51.306;4.752;2022-10-18T10:39:45;54110.22;;;-141.08;0.00
23321;BME280;33376;51.306;4.752;2022-10-18T10:42:27;54110.22;;;-141.08;0.00
23321;BME280;33376;51.306;4.752;2022-10-18T10:44:53;54110.22;;;-141.08;0.00
23321;BME280;33376;51.306;4.752;2022-10-18T10:47:30;54110.22;;;-141.08;0.00
23321;BME280;33376;51.306;4.752;2022-10-18T10:49:56;54110.22;;;-141.08;0.00
23321;BME280;33376;51.306;4.752;2022-10-18T10:52:22;54110.22;;;-141.08;0.00
23321;BME280;33376;51.306;4.752;2022-10-18T10:54:48;54110.22;;;-141.08;0.00
23321;BME280;33376;51.306;4.752;2022-10-18T10:59:44;54110.22;;;-141.08;0.00
23321;BME280;33376;51.306;4.752;2022-10-18T11:04:38;54110.22;;;-141.08;0.00
23321;BME280;33376;51.306;4.752;2022-10-18T11:07:05;54110.22;;;-141.08;0.00
23321;BME280;33376;51.306;4.752;2022-10-18T11:09:36;54110.22;;;-141.08;0.00
23321;BME280;33376;51.306;4.752;2022-10-18T11:12:24;54110.22;;;-141.08;0.00
23321;BME280;33376;51.306;4.752;2022-10-18T11:14:56;54110.22;;;-141.08;0.00
23321;BME280;33376;51.306;4.752;2022-10-18T11:22:20;54110.22;;;-141.08;0.00
23321;BME280;33376;51.306;4.752;2022-10-18T11:24:48;54110.22;;;-141.08;0.00
23321;BME280;33376;51.306;4.752;2022-10-18T11:27:17;54110.22;;;-141.08;0.00
23321;BME280;33376;51.306;4.752;2022-10-18T11:29:47;54110.22;;;-141.08;0.00
23321;BME280;33376;51.306;4.752;2022-10-18T11:50:25;54110.22;;;-141.08;0.00
23321;BME280;33376;51.306;4.752;2022-10-18T11:55:26;54110.22;;;-141.08;0.00
23321;BME280;33376;51.306;4.752;2022-10-18T11:58:17;54110.22;;;-141.08;0.00
23321;BME280;33376;51.306;4.752;2022-10-18T12:03:23;54110.22;;;-141.08;0.00
23321;BME280;33376;51.306;4.752;2022-10-18T12:05:51;54110.22;;;-141.08;0.00
23321;BME280;33376;51.306;4.752;2022-10-18T12:10:47;54110.22;;;-141.08;0.00
23321;BME280;33376;51.306;4.752;2022-10-18T12:13:22;54110.22;;;-141.08;0.00
23321;BME280;33376;51.306;4.752;2022-10-18T12:15:51;54110.22;;;-141.08;0.00
23321;BME280;33376;51.306;4.752;2022-10-18T12:18:17;54110.22;;;-141.08;0.00
23321;BME280;33376;51.306;4.752;2022-10-18T12:20:46;54110.22;;;-141.08;0.00
23321;BME280;33376;51.306;4.752;2022-10-18T12:23:16;54110.22;;;-141.08;0.00
23321;BME280;33376;51.306;4.752;2022-10-18T12:25:51;54110.22;;;-141.08;0.00
23321;BME280;33376;51.306;4.752;2022-10-18T12:28:36;54110.22;;;-141.08;0.00
23321;BME280;33376;51.306;4.752;2022-10-18T12:31:07;54110.22;;;-141.08;0.00
23321;BME280;33376;51.306;4.752;2022-10-18T12:33:37;54110.22;;;-141.08;0.00
23321;BME280;33376;51.306;4.752;2022-10-18T12:37:06;54110.22;;;-141.08;0.00
23321;BME280;33376;51.306;4.752;2022-10-18T12:38:59;54110.22;;;-141.08;0.00
23321;BME280;33376;51.306;4.752;2022-10-18T12:41:29;54110.22;;;-141.08;0.00
23321;BME280;33376;51.306;4.752;2022-10-18T12:44:00;54110.22;;;-141.08;0.00
23321;BME280;33376;51.306;4.752;2022-10-18T12:49:11;54110.22;;;-141.08;0.00
23321;BME280;33376;51.306;4.752;2022-10-18T12:51:48;54110.22;;;-141.08;0.00
23321;BME280;33376;51.306;4.752;2022-10-18T12:54:15;54110.22;;;-141.08;0.00
23321;BME280;33376;51.306;4.752;2022-10-18T12:56:42;54110.22;;;-141.08;0.00
23321;BME280;33376;51.306;4.752;2022-10-18T13:02:25;54110.22;;;-141.08;0.00
23321;BME280;33376;51.306;4.752;2022-10-18T13:09:28;54110.22;;;-141.08;0.00
23321;BME280;33376;51.306;4.752;2022-10-18T13:12:35;54110.22;;;-141.08;0.00
23321;BME280;33376;51.306;4.752;2022-10-18T13:24:36;54110.22;;;-141.08;0.00
23321;BME280;33376;51.306;4.752;2022-10-18T13:27:22;54110.22;;;-141.08;0.00
23321;BME280;33376;51.306;4.752;2022-10-18T13:32:25;54110.22;;;-141.08;0.00
23321;BME280;33376;51.306;4.752;2022-10-18T13:34:53;54110.22;;;-141.08;0.00
23321;BME280;33376;51.306;4.752;2022-10-18T13:39:43;54110.22;;;-141.08;0.00
23321;BME280;33376;51.306;4.752;2022-10-18T13:44:40;54110.22;;;-141.08;0.00
23321;BME280;33376;51.306;4.752;2022-10-18T13:57:44;54110.22;;;-141.08;0.00
23321;BME280;33376;51.306;4.752;2022-10-18T14:00:20;54110.22;;;-141.08;0.00
23321;BME280;33376;51.306;4.752;2022-10-18T14:05:35;54110.22;;;-141.08;0.00
23321;BME280;33376;51.306;4.752;2022-10-18T14:08:10;54110.22;;;-141.08;0.00
23321;BME280;33376;51.306;4.752;2022-10-18T14:10:39;54110.22;;;-141.08;0.00
23321;BME280;33376;51.306;4.752;2022-10-18T14:13:07;54110.22;;;-141.08;0.00
23321;BME280;33376;51.306;4.752;2022-10-18T14:15:40;54110.22;;;-141.08;0.00
23321;BME280;33376;51.306;4.752;2022-10-18T14:18:14;54110.22;;;-141.08;0.00
23321;BME280;33376;51.306;4.752;2022-10-18T14:20:41;54110.22;;;-141.08;0.00
23321;BME280;33376;51.306;4.752;2022-10-18T14:23:15;54110.22;;;-141.08;0.00
23321;BME280;33376;51.306;4.752;2022-10-18T14:25:43;54110.22;;;-141.08;0.00
23321;BME280;33376;51.306;4.752;2022-10-18T14:28:12;54110.22;;;-141.08;0.00
23321;BME280;33376;51.306;4.752;2022-10-18T14:30:50;54110.22;;;-141.08;0.00
23321;BME280;33376;51.306;4.752;2022-10-18T14:35:58;54110.22;;;-141.08;0.00
23321;BME280;33376;51.306;4.752;2022-10-18T14:38:23;54110.22;;;-141.08;0.00
23321;BME280;33376;51.306;4.752;2022-10-18T14:40:49;54110.22;;;-141.08;0.00
23321;BME280;33376;51.306;4.752;2022-10-18T14:43:17;54110.22;;;-141.08;0.00
23321;BME280;33376;51.306;4.752;2022-10-18T14:45:43;54110.22;;;-141.08;0.00
23321;BME280;33376;51.306;4.752;2022-10-18T14:50:39;54110.22;;;-141.08;0.00
23321;BME280;33376;51.306;4.752;2022-10-18T14:53:06;54110.22;;;-141.08;0.00
23321;BME280;33376;51.306;4.752;2022-10-18T14:55:32;54110.22;;;-141.08;0.00
23321;BME280;33376;51.306;4.752;2022-10-18T14:57:57;54110.22;;;-141.08;0.00
23321;BME280;33376;51.306;4.752;2022-10-18T15:00:25;54110.22;;;-141.08;0.00
23321;BME280;33376;51.306;4.752;2022-10-18T15:02:53;54110.22;;;-141.08;0.00
23321;BME280;33376;51.306;4.752;2022-10-18T15:05:20;54110.22;;;-141.08;0.00
23321;BME280;33376;51.306;4.752;2022-10-18T15:07:45;54110.22;;;-141.08;0.00
23321;BME280;33376;51.306;4.752;2022-10-18T15:10:32;54110.22;;;-141.08;0.00
23321;BME280;33376;51.306;4.752;2022-10-18T15:12:57;54110.22;;;-141.08;0.00
23321;BME280;33376;51.306;4.752;2022-10-18T15:15:26;54110.22;;;-141.08;0.00
23321;BME280;33376;51.306;4.752;2022-10-18T15:17:52;54110.22;;;-141.08;0.00
23321;BME280;33376;51.306;4.752;2022-10-18T15:22:46;54110.22;;;-141.08;0.00